KEKO/EKO METAR and TAF weather

Enter ICAO airport designator
Station Type Date Time Source
KEKO METAR 2019/05/25 08:56 UTC NOAA

KEKO 250856Z AUTO 20003KT 5SM RA BR BKN038 OVC048 07/05 A2992 RMK AO2 SLP114 P0005 60008 T00670050 55000 $


Station Type Date Time Source
KEKO Decoded METAR 2019/05/25 08:56 UTC NOAA

ELKO REGIONAL AIRPORT, NV, United States (KEKO) 40-50N 115-47W 1547M
May 25, 2019 - 04:56 AM EDT / 2019.05.25 0856 UTC
Wind: from the SSW (200 degrees) at 3 MPH (3 KT):0
Visibility: 5 mile(s):0
Sky conditions: overcast
Weather: rain; mist
Precipitation last hour: 0.05 inches
Temperature: 44.1 F (6.7 C)
Dew Point: 41.0 F (5.0 C)
Relative Humidity: 88%
Pressure (altimeter): 29.92 in. Hg (1013 hPa)
Pressure tendency: 0.00 inches (0.0 hPa) lower than three hours ago
ob: KEKO 250856Z AUTO 20003KT 5SM RA BR BKN038 OVC048 07/05 A2992 RMK AO2 SLP114 P0005 60008 T00670050 55000
cycle: 9

Station Type Date Time Source
KEKO TAF 2019/05/25 06:22 UTC NOAA

TAF KEKO 250520Z 2506/2606 VRB06KT P6SM -SHRA BKN050
FM251100 VRB06KT P6SM VCSH SCT050
FM251900 22009KT P6SM VCSH SCT030 OVC050
FM252100 20009KT P6SM -SHRA VCTS SCT030CB OVC050
FM260300 18010G15KT P6SM VCSH BKN050 OVC080

Example: see airport list